• Join FlightAware (Why Join?)
  • Login
  • US Flag 
11:03PM EST


 

Airport Tracker/Info


-or-


 

Live Flight TrackerFlight Track Log ✈ N633WC ✈ 15-Oct-2013 ✈ KISN - KGRI

Flight Track Log - Related Links

Times and Time Zones

All times are in EDT time to prevent confusion due to time zone crossing. See the N633WC flight status page for this flight to view local times or setup timezone preferences in your user account.

Time Position Orientation Groundspeed Altitude Reporting Facility
EDT Latitude Longitude Course Direction KTS MPH feet Rate Location/Type
10:21PM 48.1117 -103.6264 153° Southeast 185 213 5,300  Level Minneapolis Center
10:22PM 48.0636 -103.5892 153° Southeast 190 219 6,200 900 Climbing Minneapolis Center
10:23PM 48.0136 -103.5542 155° Southeast 194 223 7,200 840 Climbing Minneapolis Center
10:24PM 47.9617 -103.5236 158° South 196 226 8,000 840 Climbing Minneapolis Center
10:25PM 47.9042 -103.4725 149° Southeast 200 230 9,100 900 Climbing Salt Lake Center
10:26PM 47.8466 -103.3612 153° Southeast  Level Estimated
10:26PM 47.8567 -103.4247 146° Southeast 203 234 10,000  Level Salt Lake Center
10:27PM 47.8086 -103.3800 148° Southeast 203 234 11,100 900 Climbing Salt Lake Center
10:28PM 47.7583 -103.3392 151° Southeast 204 235 11,900 780 Climbing Salt Lake Center
10:29PM 47.7064 -103.2969 151° Southeast 207 238 12,800 780 Climbing Salt Lake Center
10:30PM 47.6539 -103.2544 151° Southeast 211 243 13,600 840 Climbing Salt Lake Center
10:31PM 47.6006 -103.2097 151° Southeast 216 249 14,600 840 Climbing Salt Lake Center
10:32PM 47.5464 -103.1653 151° Southeast 218 251 15,400 840 Climbing Salt Lake Center
10:33PM 47.4819 -103.1108 150° Southeast 221 254 16,400 840 Climbing Salt Lake Center
10:34PM 47.4281 -103.0653 150° Southeast 222 255 17,200 720 Climbing Salt Lake Center
10:35PM 47.3739 -103.0189 150° Southeast 223 257 17,900 660 Climbing Salt Lake Center
10:36PM 47.3217 -102.9725 149° Southeast 222 255 18,600 780 Climbing Salt Lake Center
10:37PM 47.2706 -102.9303 151° Southeast 218 251 19,500 780 Climbing Salt Lake Center
10:38PM 47.2214 -102.8869 149° Southeast 212 244 20,300 600 Climbing Salt Lake Center
10:39PM 47.1708 -102.8431 149° Southeast 211 243 20,800 300 Climbing Salt Lake Center
10:40PM 47.1172 -102.8019 152° Southeast 213 245 21,000 60 Climbing Salt Lake Center
10:41PM 47.0608 -102.7569 151° Southeast 227 261 21,000  Level Minneapolis Center
10:42PM 47.0017 -102.7078 150° Southeast 240 276 21,000  Level Minneapolis Center
10:43PM 46.9433 -102.6575 150° Southeast 243 280 21,000  Level Minneapolis Center
10:44PM 46.8836 -102.6111 152° Southeast 243 280 21,000  Level Minneapolis Center
10:45PM 46.8239 -102.5611 150° Southeast 246 283 21,000  Level Minneapolis Center
10:46PM 46.7653 -102.5119 150° Southeast 244 281 21,000  Level Minneapolis Center
10:47PM 46.7061 -102.4647 151° Southeast 244 281 21,000  Level Minneapolis Center
10:48PM 46.6353 -102.4078 151° Southeast 243 280 21,000  Level Minneapolis Center
10:49PM 46.5756 -102.3594 151° Southeast 245 282 21,000  Level Minneapolis Center
10:50PM 46.5142 -102.3119 152° Southeast 247 284 21,000  Level Minneapolis Center
10:51PM 46.4536 -102.2644 152° Southeast 249 287 21,000  Level Minneapolis Center
10:52PM 46.3942 -102.2169 151° Southeast 246 283 21,000  Level Minneapolis Center
10:53PM 46.3344 -102.1686 151° Southeast 246 283 21,000 180 Level Minneapolis Center
10:54PM 46.2744 -102.1214 151° Southeast 247 284 21,400 780 Climbing Minneapolis Center
10:55PM 46.2233 -102.0819 152° Southeast 222 255 22,700 780 Climbing Minneapolis Center
10:56PM 46.1767 -102.0425 150° Southeast 202 232 23,000 120 Climbing Minneapolis Center
10:57PM 46.1189 -101.9983 152° Southeast 215 247 23,000  Level Minneapolis Center
10:59PM 46.0603 -101.9547 153° Southeast 231 266 23,000  Level Minneapolis Center
11:00PM 45.9894 -101.9003 152° Southeast 239 275 23,000  Level Minneapolis Center
11:01PM 45.9311 -101.8522 150° Southeast 241 277 23,000  Level Minneapolis Center
11:02PM 45.8717 -101.8067 152° Southeast 242 278 23,000  Level Minneapolis Center
11:03PM 45.8131 -101.7597 151° Southeast 242 278 23,000  Level Minneapolis Center
11:04PM 45.7533 -101.7150 152° Southeast 241 277 23,000  Level Minneapolis Center
11:05PM 45.6956 -101.6686 151° Southeast 240 276 23,000  Level Minneapolis Center
11:06PM 45.6372 -101.6231 151° Southeast 239 275 23,000  Level Minneapolis Center
11:07PM 45.5806 -101.5764 150° Southeast 237 273 23,000  Level Minneapolis Center
11:08PM 45.5222 -101.5319 152° Southeast 237 273 23,000  Level Minneapolis Center
11:09PM 45.4633 -101.4889 153° Southeast 238 274 23,000  Level Minneapolis Center
11:10PM 45.4064 -101.4447 151° Southeast 236 272 23,000  Level Minneapolis Center
11:11PM 45.3375 -101.3897 151° Southeast 236 272 23,000  Level Minneapolis Center
11:12PM 45.2786 -101.3464 153° Southeast 238 274 23,000  Level Minneapolis Center
11:13PM 45.2203 -101.3033 153° Southeast 238 274 23,000  Level Minneapolis Center
11:14PM 45.1611 -101.2603 153° Southeast 238 274 23,000  Level Minneapolis Center
11:15PM 45.1025 -101.2172 153° Southeast 239 275 23,000  Level Minneapolis Center
11:16PM 45.0450 -101.1722 151° Southeast 238 274 23,000  Level Minneapolis Center
11:17PM 44.9869 -101.1272 151° Southeast 238 274 23,000  Level Minneapolis Center
11:18PM 44.9278 -101.0808 151° Southeast 240 276 23,000  Level Minneapolis Center
11:19PM 44.8681 -101.0350 151° Southeast 242 278 23,000  Level Minneapolis Center
11:20PM 44.8069 -100.9900 152° Southeast 245 282 23,000  Level Minneapolis Center
11:21PM 44.7344 -100.9344 151° Southeast 247 284 23,000  Level Minneapolis Center
11:22PM 44.6742 -100.8875 151° Southeast 247 284 23,000  Level Minneapolis Center
11:23PM 44.6128 -100.8422 152° Southeast 248 285 23,000  Level Minneapolis Center
11:24PM 44.5519 -100.7942 151° Southeast 250 288 23,000  Level Minneapolis Center
11:25PM 44.4903 -100.7478 152° Southeast 251 289 23,000  Level Minneapolis Center
11:26PM 44.4281 -100.7011 152° Southeast 252 290 23,000  Level Minneapolis Center
11:27PM 44.3656 -100.6558 153° Southeast 253 291 23,000  Level Minneapolis Center
11:28PM 44.3033 -100.6097 152° Southeast 254 292 23,000  Level Minneapolis Center
11:29PM 44.2408 -100.5625 152° Southeast 254 292 23,000  Level Minneapolis Center
11:30PM 44.1772 -100.5178 153° Southeast 255 293 23,000  Level Minneapolis Center
11:31PM 44.1139 -100.4717 152° Southeast 256 295 23,000  Level Minneapolis Center
11:32PM 44.0389 -100.4167 152° Southeast 255 293 23,000  Level Minneapolis Center
11:33PM 43.9761 -100.3708 152° Southeast 255 293 23,000  Level Minneapolis Center
11:34PM 43.9117 -100.3289 155° Southeast 255 293 23,000  Level Minneapolis Center
11:35PM 43.8486 -100.2869 154° Southeast 254 292 23,000  Level Minneapolis Center
11:36PM 43.7869 -100.2397 151° Southeast 253 291 23,000  Level Minneapolis Center
11:37PM 43.7250 -100.1894 150° Southeast 255 293 23,000  Level Minneapolis Center
11:38PM 43.6625 -100.1453 153° Southeast 255 293 23,000  Level Minneapolis Center
11:39PM 43.5986 -100.1022 154° Southeast 255 293 23,000  Level Minneapolis Center
11:40PM 43.5361 -100.0589 153° Southeast 253 291 23,000  Level Minneapolis Center
11:41PM 43.4736 -100.0125 152° Southeast 254 292 23,000  Level Minneapolis Center
11:42PM 43.4108 -99.9675 152° Southeast 254 292 23,000  Level Minneapolis Center
11:43PM 43.3492 -99.9231 152° Southeast 252 290 23,000  Level Minneapolis Center
11:44PM 43.2867 -99.8764 151° Southeast 254 292 23,000  Level Minneapolis Center
11:45PM 43.2250 -99.8331 153° Southeast 251 289 23,000  Level Minneapolis Center
11:46PM 43.1494 -99.7814 153° Southeast 251 289 23,000  Level Minneapolis Center
11:47PM 43.0864 -99.7394 154° Southeast 252 290 23,000  Level Minneapolis Center
11:48PM 43.0231 -99.6942 152° Southeast 251 289 23,000  Level Minneapolis Center
11:49PM 42.9603 -99.6511 153° Southeast 252 290 23,000  Level Minneapolis Center
11:50PM 42.8981 -99.6061 152° Southeast 252 290 23,000  Level Minneapolis Center
11:51PM 42.8350 -99.5653 155° Southeast 251 289 23,000  Level Minneapolis Center
11:52PM 42.7725 -99.5250 155° Southeast 250 288 23,000  Level Minneapolis Center
11:53PM 42.7111 -99.4800 152° Southeast 249 287 23,000  Level Minneapolis Center
11:54PM 42.6497 -99.4356 152° Southeast 249 287 23,000  Level Minneapolis Center
11:55PM 42.5878 -99.3908 152° Southeast 251 289 23,000  Level Minneapolis Center
11:56PM 42.5256 -99.3481 153° Southeast 250 288 23,000  Level Minneapolis Center
11:57PM 42.4636 -99.3081 155° Southeast 248 285 23,000  Level Minneapolis Center
11:58PM 42.4019 -99.2636 152° Southeast 250 288 23,000 -360 Level Minneapolis Center
12:00AM 42.3381 -99.2222 154° Southeast 253 291 22,300 -840 Descending Minneapolis Center
12:01AM 42.2686 -99.1761 154° Southeast 272 313 21,300 -1,080 Descending Minneapolis Center
12:02AM 42.1986 -99.1292 154° Southeast 279 321 20,200 -1,140 Descending Minneapolis Center
12:03AM 42.1289 -99.0833 154° Southeast 279 321 19,100 -1,140 Descending Minneapolis Center
12:04AM 42.0628 -99.0403 154° Southeast 269 310 18,000 -1,140 Descending Minneapolis Center
12:05AM 41.9981 -98.9922 151° Southeast 265 305 16,900 -1,200 Descending Minneapolis Center
12:06AM 41.9342 -98.9419 150° Southeast 265 305 15,600 -1,380 Descending Minneapolis Center
12:07AM 41.8694 -98.8972 153° Southeast 263 303 14,200 -1,440 Descending Minneapolis Center
12:08AM 41.8019 -98.8536 154° Southeast 266 306 12,800 -1,320 Descending Minneapolis Center
12:09AM 41.7339 -98.8114 155° Southeast 268 308 11,600 -1,200 Descending Minneapolis Center
12:10AM 41.6672 -98.7697 155° Southeast 266 306 10,400 -1,200 Descending Minneapolis Center
12:11AM 41.6017 -98.7236 152° Southeast 265 305 9,200 -1,200 Descending Minneapolis Center
12:12AM 41.5347 -98.6742 151° Southeast 268 308 8,000 -1,260 Descending Minneapolis Center
12:13AM 41.4672 -98.6275 153° Southeast 271 312 6,700 -1,440 Descending Minneapolis Center
12:14AM 41.4006 -98.5828 153° Southeast 269 310 5,200 -1,380 Descending Minneapolis Center
12:15AM 41.3322 -98.5392 154° Southeast 269 310 4,000 -600 Descending Minneapolis Center
12:16AM 41.2719 -98.4972 152° Southeast 256 295 4,000  Level Minneapolis Center
12:17AM 41.2200 -98.4619 153° Southeast 225 259 4,000  Level Minneapolis Center
12:18AM 41.1681 -98.4322 157° South 211 243 4,000 -180 Level Minneapolis Center
12:19AM 41.1150 -98.4089 162° South 204 235 3,700 -300 Descending Minneapolis Center
12:20AM 41.0631 -98.3872 163° South 203 234 3,500 -240 Descending Minneapolis Center